createdAt,value
2019-03-18T00:00:34.567Z,1001.54
2019-03-18T00:01:34.645Z,1001.55
2019-03-18T00:02:34.554Z,1001.54
2019-03-18T00:03:34.555Z,1001.60
2019-03-18T00:04:34.526Z,1001.59
2019-03-18T00:05:34.516Z,1001.57
2019-03-18T00:06:34.499Z,1001.65
2019-03-18T00:07:34.535Z,1001.62
2019-03-18T00:08:34.488Z,1001.64
2019-03-18T00:09:34.495Z,1001.71
2019-03-18T00:10:34.467Z,1001.73
2019-03-18T00:11:34.457Z,1001.74
2019-03-18T00:12:34.492Z,1001.69
2019-03-18T00:13:34.420Z,1001.73
2019-03-18T00:14:34.472Z,1001.70
2019-03-18T00:15:34.412Z,1001.70
2019-03-18T00:16:34.424Z,1001.68
2019-03-18T00:17:34.404Z,1001.65
2019-03-18T00:18:34.405Z,1001.71
2019-03-18T00:19:34.398Z,1001.68
2019-03-18T00:20:34.375Z,1001.71
2019-03-18T00:21:34.367Z,1001.73
2019-03-18T00:22:34.365Z,1001.67
2019-03-18T00:23:34.329Z,1001.72
2019-03-18T00:24:34.327Z,1001.68
2019-03-18T00:25:34.309Z,1001.65
2019-03-18T00:26:34.313Z,1001.66
2019-03-18T00:27:34.313Z,1001.67
2019-03-18T00:28:34.288Z,1001.63
2019-03-18T00:29:34.292Z,1001.62
2019-03-18T00:30:34.319Z,1001.59
2019-03-18T00:31:34.270Z,1001.57
2019-03-18T00:32:34.252Z,1001.54
2019-03-18T00:33:34.225Z,1001.61
2019-03-18T00:34:34.220Z,1001.57
2019-03-18T00:35:34.201Z,1001.58
2019-03-18T00:36:34.230Z,1001.56
2019-03-18T00:37:34.187Z,1001.54
2019-03-18T00:38:34.182Z,1001.57
2019-03-18T00:39:34.185Z,1001.56
2019-03-18T00:40:34.144Z,1001.66
2019-03-18T00:41:34.161Z,1001.69
2019-03-18T00:42:34.177Z,1001.67
2019-03-18T00:43:34.136Z,1001.66
2019-03-18T00:44:34.121Z,1001.72
2019-03-18T00:45:34.123Z,1001.68
2019-03-18T00:46:34.090Z,1001.67
2019-03-18T00:47:34.110Z,1001.74
2019-03-18T00:48:34.115Z,1001.76
2019-03-18T00:49:34.114Z,1001.73
2019-03-18T00:50:34.067Z,1001.76
2019-03-18T00:51:34.056Z,1001.77
2019-03-18T00:52:34.071Z,1001.76
2019-03-18T00:53:34.027Z,1001.76
2019-03-18T00:54:34.034Z,1001.76
2019-03-18T00:55:34.026Z,1001.78
2019-03-18T00:56:34.006Z,1001.76
2019-03-18T00:57:34.006Z,1001.77
2019-03-18T00:58:33.972Z,1001.83
2019-03-18T00:59:33.998Z,1001.88
2019-03-18T01:00:33.946Z,1001.89
2019-03-18T01:01:33.954Z,1001.86
2019-03-18T01:02:33.946Z,1001.89
2019-03-18T01:03:33.915Z,1001.87
2019-03-18T01:04:33.913Z,1001.89
2019-03-18T01:05:33.943Z,1001.96
2019-03-18T01:06:33.973Z,1001.94
2019-03-18T01:07:34.016Z,1001.99
2019-03-18T01:08:33.868Z,1001.99
2019-03-18T01:09:33.881Z,1001.94
2019-03-18T01:10:33.881Z,1001.95
2019-03-18T01:11:33.896Z,1001.92
2019-03-18T01:12:33.879Z,1001.98
2019-03-18T01:13:33.819Z,1001.99
2019-03-18T01:14:33.872Z,1002.00
2019-03-18T01:15:33.826Z,1001.99
2019-03-18T01:16:33.811Z,1001.99
2019-03-18T01:17:33.792Z,1002.00
2019-03-18T01:18:33.765Z,1001.95
2019-03-18T01:19:33.753Z,1002.00
2019-03-18T01:20:33.752Z,1001.95
2019-03-18T01:21:33.741Z,1002.00
2019-03-18T01:22:33.737Z,1001.98
2019-03-18T01:23:33.721Z,1001.97
2019-03-18T01:24:33.716Z,1002.03
2019-03-18T01:25:33.716Z,1002.00
2019-03-18T01:26:33.690Z,1002.02
2019-03-18T01:27:33.701Z,1002.03
2019-03-18T01:28:33.668Z,1002.08
2019-03-18T01:29:33.684Z,1002.07
2019-03-18T01:30:33.645Z,1002.11
2019-03-18T01:31:33.633Z,1002.13
2019-03-18T01:32:33.642Z,1002.10
2019-03-18T01:33:33.633Z,1002.08
2019-03-18T01:34:33.597Z,1002.03
2019-03-18T01:35:33.620Z,1002.05
2019-03-18T01:36:33.572Z,1002.03
2019-03-18T01:37:33.584Z,1001.99
2019-03-18T01:38:33.592Z,1002.04
2019-03-18T01:39:33.559Z,1001.99
2019-03-18T01:40:33.536Z,1001.99
2019-03-18T01:41:33.536Z,1002.05
2019-03-18T01:42:33.521Z,1001.97
2019-03-18T01:43:33.539Z,1001.99
2019-03-18T01:44:33.488Z,1002.02
2019-03-18T01:45:40.531Z,1002.04
2019-03-18T01:46:34.488Z,1002.01
2019-03-18T01:47:33.473Z,1001.92
2019-03-18T01:48:33.504Z,1001.98
2019-03-18T01:49:33.435Z,1001.95
2019-03-18T01:50:33.429Z,1002.00
2019-03-18T01:51:33.425Z,1001.92
2019-03-18T01:52:33.419Z,1001.90
2019-03-18T01:53:33.421Z,1001.90
2019-03-18T01:54:33.422Z,1001.88
2019-03-18T01:55:33.372Z,1001.93
2019-03-18T01:56:33.380Z,1001.89
2019-03-18T01:57:33.362Z,1001.93
2019-03-18T01:58:33.380Z,1001.85
2019-03-18T01:59:33.331Z,1001.83
2019-03-18T02:00:33.343Z,1001.87
2019-03-18T02:01:33.318Z,1001.84
2019-03-18T02:02:33.310Z,1001.87
2019-03-18T02:03:33.288Z,1001.88
2019-03-18T02:04:33.304Z,1001.91
2019-03-18T02:05:33.299Z,1001.86
2019-03-18T02:06:33.279Z,1001.90
2019-03-18T02:07:33.265Z,1001.98
2019-03-18T02:08:33.251Z,1001.92
2019-03-18T02:09:33.234Z,1001.90
2019-03-18T02:10:33.235Z,1001.90
2019-03-18T02:11:33.292Z,1001.90
2019-03-18T02:12:33.202Z,1001.90
2019-03-18T02:13:33.191Z,1001.87
2019-03-18T02:14:33.186Z,1001.86
2019-03-18T02:15:33.321Z,1001.80
2019-03-18T02:16:33.169Z,1001.87
2019-03-18T02:17:33.175Z,1001.83
2019-03-18T02:18:33.145Z,1001.84
2019-03-18T02:19:33.116Z,1001.87
2019-03-18T02:20:33.129Z,1001.88
2019-03-18T02:21:33.121Z,1001.87
2019-03-18T02:22:33.115Z,1001.88
2019-03-18T02:23:33.094Z,1001.87
2019-03-18T02:24:33.088Z,1001.89
2019-03-18T02:25:33.067Z,1001.91
2019-03-18T02:26:33.059Z,1001.89
2019-03-18T02:27:33.112Z,1001.89
2019-03-18T02:28:33.188Z,1002.00
2019-03-18T02:29:33.021Z,1001.97
2019-03-18T02:30:33.006Z,1001.94
2019-03-18T02:31:33.020Z,1001.97
2019-03-18T02:32:32.999Z,1001.97
2019-03-18T02:33:32.992Z,1002.04
2019-03-18T02:34:33.009Z,1001.96
2019-03-18T02:35:33.012Z,1001.97
2019-03-18T02:36:32.969Z,1002.01
2019-03-18T02:37:32.999Z,1001.98
2019-03-18T02:38:32.932Z,1002.00
2019-03-18T02:39:32.982Z,1001.91
2019-03-18T02:40:32.922Z,1001.98
2019-03-18T02:41:32.972Z,1001.95
2019-03-18T02:42:32.915Z,1001.95
2019-03-18T02:43:32.878Z,1001.95
2019-03-18T02:44:32.869Z,1001.97
2019-03-18T02:45:32.883Z,1001.97
2019-03-18T02:46:32.839Z,1001.93
2019-03-18T02:47:32.871Z,1001.94
2019-03-18T02:48:32.808Z,1001.99
2019-03-18T02:49:32.805Z,1001.95
2019-03-18T02:50:32.799Z,1001.95
2019-03-18T02:51:32.783Z,1001.89
2019-03-18T02:52:32.800Z,1001.91
2019-03-18T02:53:32.760Z,1001.90
2019-03-18T02:54:32.744Z,1001.89
2019-03-18T02:55:32.743Z,1001.93
2019-03-18T02:56:32.736Z,1001.96
2019-03-18T02:57:32.779Z,1001.86
2019-03-18T02:58:32.704Z,1001.92
2019-03-18T02:59:32.724Z,1001.91
2019-03-18T03:00:32.700Z,1001.81
2019-03-18T03:01:32.680Z,1001.86
2019-03-18T03:02:32.677Z,1001.82
2019-03-18T03:03:32.667Z,1001.81
2019-03-18T03:04:32.659Z,1001.87
2019-03-18T03:05:32.654Z,1001.83
2019-03-18T03:06:32.627Z,1001.86
2019-03-18T03:07:32.659Z,1001.82
2019-03-18T03:08:32.608Z,1001.89
2019-03-18T03:09:32.604Z,1001.82
2019-03-18T03:10:32.600Z,1001.95
2019-03-18T03:11:34.379Z,1001.89
2019-03-18T03:12:32.602Z,1001.95
2019-03-18T03:13:32.559Z,1002.06
2019-03-18T03:14:32.593Z,1001.96
2019-03-18T03:15:32.552Z,1001.94
2019-03-18T03:16:32.576Z,1001.95
2019-03-18T03:17:32.538Z,1001.94
2019-03-18T03:18:32.524Z,1001.93
2019-03-18T03:19:32.514Z,1001.96
2019-03-18T03:20:32.491Z,1001.97
2019-03-18T03:21:32.482Z,1002.06
2019-03-18T03:22:32.477Z,1001.98
2019-03-18T03:23:32.450Z,1002.02
2019-03-18T03:24:32.453Z,1002.03
2019-03-18T03:25:32.434Z,1002.04
2019-03-18T03:26:32.420Z,1002.05
2019-03-18T03:27:32.403Z,1002.07
2019-03-18T03:28:32.412Z,1002.08
2019-03-18T03:29:32.386Z,1001.98
2019-03-18T03:30:32.373Z,1002.02
2019-03-18T03:31:32.365Z,1002.04
2019-03-18T03:32:32.349Z,1002.06
2019-03-18T03:33:32.421Z,1002.06
2019-03-18T03:34:32.403Z,1002.05
2019-03-18T03:35:32.321Z,1001.99
2019-03-18T03:36:32.326Z,1001.98
2019-03-18T03:37:32.305Z,1002.01
2019-03-18T03:38:32.289Z,1002.04
2019-03-18T03:39:32.322Z,1002.07
2019-03-18T03:40:32.259Z,1002.08
2019-03-18T03:41:32.265Z,1002.09
2019-03-18T03:42:32.244Z,1002.14
2019-03-18T03:43:32.260Z,1002.17
2019-03-18T03:44:32.289Z,1002.17
2019-03-18T03:45:32.208Z,1002.18
2019-03-18T03:46:43.133Z,1002.21
2019-03-18T03:47:33.194Z,1002.22
2019-03-18T03:48:32.187Z,1002.21
2019-03-18T03:49:32.198Z,1002.20
2019-03-18T03:50:32.210Z,1002.20
2019-03-18T03:51:32.166Z,1002.19
2019-03-18T03:52:32.205Z,1002.23
2019-03-18T03:53:32.169Z,1002.17
2019-03-18T03:54:32.111Z,1002.12
2019-03-18T03:55:32.132Z,1002.26
2019-03-18T03:56:32.094Z,1002.24
2019-03-18T03:57:32.091Z,1002.24
2019-03-18T03:58:32.082Z,1002.26
2019-03-18T03:59:32.079Z,1002.27
2019-03-18T04:00:32.089Z,1002.23
2019-03-18T04:01:32.076Z,1002.24
2019-03-18T04:02:32.082Z,1002.24
2019-03-18T04:03:38.344Z,1002.23
2019-03-18T04:04:33.041Z,1002.32
2019-03-18T04:05:32.011Z,1002.29
2019-03-18T04:06:32.043Z,1002.31
2019-03-18T04:07:31.994Z,1002.31
2019-03-18T04:08:32.085Z,1002.31
2019-03-18T04:09:31.973Z,1002.27
2019-03-18T04:10:31.951Z,1002.33
2019-03-18T04:11:31.953Z,1002.32
2019-03-18T04:12:31.923Z,1002.27
2019-03-18T04:13:31.916Z,1002.35
2019-03-18T04:14:31.891Z,1002.23
2019-03-18T04:15:31.897Z,1002.32
2019-03-18T04:16:31.908Z,1002.33
2019-03-18T04:17:31.890Z,1002.42
2019-03-18T04:18:31.876Z,1002.42
2019-03-18T04:19:31.872Z,1002.42
2019-03-18T04:20:31.830Z,1002.38
2019-03-18T04:21:31.831Z,1002.37
2019-03-18T04:22:31.836Z,1002.40
2019-03-18T04:23:31.818Z,1002.39
2019-03-18T04:24:31.822Z,1002.47
2019-03-18T04:25:31.791Z,1002.40
2019-03-18T04:26:31.804Z,1002.53
2019-03-18T04:27:31.788Z,1002.43
2019-03-18T04:28:31.764Z,1002.47
2019-03-18T04:29:31.766Z,1002.48
2019-03-18T04:30:31.745Z,1002.44
2019-03-18T04:31:31.731Z,1002.46
2019-03-18T04:32:31.715Z,1002.45
2019-03-18T04:33:31.746Z,1002.42
2019-03-18T04:34:31.702Z,1002.41
2019-03-18T04:35:31.688Z,1002.39
2019-03-18T04:36:31.750Z,1002.44
2019-03-18T04:37:31.692Z,1002.47
2019-03-18T04:38:31.702Z,1002.46
2019-03-18T04:39:31.671Z,1002.45
2019-03-18T04:40:31.645Z,1002.51
2019-03-18T04:41:31.608Z,1002.54
2019-03-18T04:42:31.603Z,1002.52
2019-03-18T04:43:31.630Z,1002.51
2019-03-18T04:44:31.612Z,1002.47
2019-03-18T04:45:31.584Z,1002.57
2019-03-18T04:46:31.575Z,1002.60
2019-03-18T04:47:31.564Z,1002.62
2019-03-18T04:48:31.627Z,1002.53
2019-03-18T04:49:31.559Z,1002.57
2019-03-18T04:50:31.532Z,1002.62
2019-03-18T04:51:31.531Z,1002.64
2019-03-18T04:52:31.509Z,1002.67
2019-03-18T04:53:31.529Z,1002.59
2019-03-18T04:54:31.485Z,1002.57
2019-03-18T04:55:31.491Z,1002.66
2019-03-18T04:56:31.461Z,1002.65
2019-03-18T04:57:31.464Z,1002.67
2019-03-18T04:58:31.446Z,1002.70
2019-03-18T04:59:31.518Z,1002.66
2019-03-18T05:00:31.445Z,1002.73
2019-03-18T05:01:31.463Z,1002.67
2019-03-18T05:02:31.412Z,1002.74
2019-03-18T05:03:31.386Z,1002.69
2019-03-18T05:04:31.418Z,1002.70
2019-03-18T05:05:31.371Z,1002.70
2019-03-18T05:06:31.353Z,1002.78
2019-03-18T05:07:31.354Z,1002.72
2019-03-18T05:08:31.347Z,1002.72
2019-03-18T05:09:31.315Z,1002.70
2019-03-18T05:10:31.334Z,1002.73
2019-03-18T05:11:31.296Z,1002.75
2019-03-18T05:12:31.321Z,1002.81
2019-03-18T05:13:31.279Z,1002.78
2019-03-18T05:14:31.261Z,1002.78
2019-03-18T05:15:31.263Z,1002.78
2019-03-18T05:16:31.302Z,1002.88
2019-03-18T05:17:31.235Z,1002.76
2019-03-18T05:18:31.221Z,1002.83
2019-03-18T05:19:31.282Z,1002.82
2019-03-18T05:20:32.733Z,1002.89
2019-03-18T05:21:33.746Z,1002.89
2019-03-18T05:22:31.190Z,1002.84
2019-03-18T05:23:31.178Z,1002.93
2019-03-18T05:24:31.196Z,1002.97
2019-03-18T05:25:31.268Z,1002.96
2019-03-18T05:26:31.139Z,1002.94
2019-03-18T05:27:35.875Z,1003.00
2019-03-18T05:28:32.644Z,1002.99
2019-03-18T05:29:35.584Z,1003.02
2019-03-18T05:30:34.877Z,1002.97
2019-03-18T05:31:31.101Z,1003.06
2019-03-18T05:32:31.310Z,1003.07
2019-03-18T05:33:31.582Z,1003.07
2019-03-18T05:34:33.585Z,1003.21
2019-03-18T05:35:34.620Z,1003.09
2019-03-18T05:36:32.137Z,1003.18
2019-03-18T05:37:34.335Z,1003.16
2019-03-18T05:38:31.485Z,1003.19
2019-03-18T05:39:31.015Z,1003.20
2019-03-18T05:40:31.001Z,1003.15
2019-03-18T05:41:31.020Z,1003.18
2019-03-18T05:42:32.086Z,1003.20
2019-03-18T05:43:32.027Z,1003.12
2019-03-18T05:44:35.729Z,1003.14
2019-03-18T05:45:31.499Z,1003.12
2019-03-18T05:46:32.191Z,1003.18
2019-03-18T05:47:39.138Z,1003.20
2019-03-18T05:48:37.442Z,1003.12
2019-03-18T05:49:32.464Z,1003.13
2019-03-18T05:50:31.226Z,1003.20
2019-03-18T05:51:35.592Z,1003.13
2019-03-18T05:52:32.502Z,1003.20
2019-03-18T05:53:31.720Z,1003.13
2019-03-18T05:54:30.875Z,1003.18
2019-03-18T05:55:30.859Z,1003.22
2019-03-18T05:56:30.839Z,1003.30
2019-03-18T05:57:30.856Z,1003.23
2019-03-18T05:58:30.793Z,1003.24
2019-03-18T05:59:30.812Z,1003.27
2019-03-18T06:00:30.792Z,1003.36
2019-03-18T06:01:30.767Z,1003.26
2019-03-18T06:02:30.782Z,1003.24
2019-03-18T06:03:30.763Z,1003.31
2019-03-18T06:04:30.726Z,1003.28
2019-03-18T06:05:30.757Z,1003.27
2019-03-18T06:06:30.792Z,1003.31
2019-03-18T06:07:30.737Z,1003.26
2019-03-18T06:08:30.735Z,1003.33
2019-03-18T06:09:30.695Z,1003.33
2019-03-18T06:10:30.746Z,1003.29
2019-03-18T06:11:30.664Z,1003.23
2019-03-18T06:12:30.695Z,1003.34
2019-03-18T06:13:30.666Z,1003.30
2019-03-18T06:14:30.707Z,1003.33
2019-03-18T06:15:30.682Z,1003.30
2019-03-18T06:16:30.612Z,1003.31
2019-03-18T06:17:30.622Z,1003.31
2019-03-18T06:18:30.635Z,1003.32
2019-03-18T06:19:30.591Z,1003.31
2019-03-18T06:20:30.599Z,1003.32
2019-03-18T06:21:30.609Z,1003.41
2019-03-18T06:22:30.592Z,1003.37
2019-03-18T06:23:30.547Z,1003.30
2019-03-18T06:24:30.561Z,1003.33
2019-03-18T06:25:30.603Z,1003.27
2019-03-18T06:26:30.533Z,1003.30
2019-03-18T06:27:30.505Z,1003.29
2019-03-18T06:28:30.483Z,1003.33
2019-03-18T06:29:30.540Z,1003.29
2019-03-18T06:30:30.482Z,1003.31
2019-03-18T06:31:30.552Z,1003.31
2019-03-18T06:32:30.441Z,1003.31
2019-03-18T06:33:30.437Z,1003.31
2019-03-18T06:34:30.462Z,1003.37
2019-03-18T06:35:30.462Z,1003.35
2019-03-18T06:36:30.419Z,1003.36
2019-03-18T06:37:30.410Z,1003.37
2019-03-18T06:38:30.404Z,1003.32
2019-03-18T06:39:30.429Z,1003.35
2019-03-18T06:40:30.402Z,1003.33
2019-03-18T06:41:30.453Z,1003.37
2019-03-18T06:42:30.369Z,1003.44
2019-03-18T06:43:30.468Z,1003.38
2019-03-18T06:44:30.381Z,1003.33
2019-03-18T06:45:30.379Z,1003.34
2019-03-18T06:46:30.326Z,1003.42
2019-03-18T06:47:30.298Z,1003.38
2019-03-18T06:48:30.292Z,1003.54
2019-03-18T06:49:39.710Z,1003.49
2019-03-18T06:50:39.249Z,1003.46
2019-03-18T06:51:30.235Z,1003.55
2019-03-18T06:52:30.224Z,1003.59
2019-03-18T06:53:30.270Z,1003.57
2019-03-18T06:54:30.212Z,1003.65
2019-03-18T06:55:30.229Z,1003.66
2019-03-18T06:56:30.196Z,1003.57
2019-03-18T06:57:30.177Z,1003.59
2019-03-18T06:58:30.217Z,1003.60
2019-03-18T06:59:30.168Z,1003.63
2019-03-18T07:00:30.136Z,1003.65
2019-03-18T07:01:39.303Z,1003.62
2019-03-18T07:02:30.115Z,1003.62
2019-03-18T07:03:39.344Z,1003.69
2019-03-18T07:04:39.328Z,1003.69
2019-03-18T07:05:30.096Z,1003.69
2019-03-18T07:06:31.274Z,1003.71
2019-03-18T07:07:40.365Z,1003.65
2019-03-18T07:08:30.075Z,1003.73
2019-03-18T07:09:30.087Z,1003.73
2019-03-18T07:10:30.043Z,1003.77
2019-03-18T07:11:30.054Z,1003.86
2019-03-18T07:12:30.035Z,1003.80
2019-03-18T07:13:30.040Z,1003.79
2019-03-18T07:14:30.023Z,1003.92
2019-03-18T07:15:29.994Z,1003.90
2019-03-18T07:16:30.030Z,1003.91
2019-03-18T07:17:29.998Z,1003.77
2019-03-18T07:18:29.976Z,1003.88
2019-03-18T07:19:29.961Z,1003.92
2019-03-18T07:20:39.402Z,1003.99
2019-03-18T07:21:29.918Z,1004.05
2019-03-18T07:22:29.946Z,1004.03
2019-03-18T07:23:29.901Z,1004.07
2019-03-18T07:24:29.897Z,1004.01
2019-03-18T07:25:29.870Z,1004.05
2019-03-18T07:26:29.870Z,1004.08
2019-03-18T07:27:29.884Z,1004.08
2019-03-18T07:28:29.898Z,1004.06
2019-03-18T07:29:29.840Z,1004.17
2019-03-18T07:30:29.865Z,1004.01
2019-03-18T07:31:29.849Z,1004.04
2019-03-18T07:32:40.682Z,1004.11
2019-03-18T07:33:44.711Z,1003.98
2019-03-18T07:34:43.534Z,1004.05
2019-03-18T07:35:42.536Z,1004.05
2019-03-18T07:36:40.570Z,1003.98
2019-03-18T07:37:30.924Z,1003.99
2019-03-18T07:38:29.780Z,1004.04
2019-03-18T07:39:29.748Z,1004.00
2019-03-18T07:40:29.730Z,1004.04
2019-03-18T07:41:29.778Z,1004.08
2019-03-18T07:42:29.701Z,1003.99
2019-03-18T07:43:29.980Z,1004.12
2019-03-18T07:44:29.747Z,1004.11
2019-03-18T07:45:29.698Z,1004.06
2019-03-18T07:46:29.763Z,1004.15
2019-03-18T07:47:29.687Z,1004.13
2019-03-18T07:48:31.342Z,1004.18
2019-03-18T07:49:29.733Z,1004.21
2019-03-18T07:50:29.772Z,1004.32
2019-03-18T07:51:29.805Z,1004.25
2019-03-18T07:52:29.881Z,1004.24
2019-03-18T07:53:29.583Z,1004.27
2019-03-18T07:54:32.949Z,1004.27
2019-03-18T07:55:29.645Z,1004.32
2019-03-18T07:56:29.630Z,1004.31
2019-03-18T07:57:32.529Z,1004.32
2019-03-18T07:58:29.686Z,1004.30
2019-03-18T07:59:29.590Z,1004.29
2019-03-18T08:00:29.585Z,1004.27
2019-03-18T08:01:29.638Z,1004.32
2019-03-18T08:02:29.608Z,1004.29
2019-03-18T08:03:29.652Z,1004.34
2019-03-18T08:04:37.278Z,1004.30
2019-03-18T08:05:31.338Z,1004.31
2019-03-18T08:06:30.524Z,1004.35
2019-03-18T08:07:31.312Z,1004.35
2019-03-18T08:08:31.378Z,1004.24
2019-03-18T08:09:30.893Z,1004.08
2019-03-18T08:10:32.010Z,1004.13
2019-03-18T08:11:29.495Z,1004.18
2019-03-18T08:12:31.338Z,1004.14
2019-03-18T08:13:31.869Z,1004.11
2019-03-18T08:14:30.844Z,1004.13
2019-03-18T08:15:29.420Z,1004.05
2019-03-18T08:16:29.707Z,1004.09
2019-03-18T08:17:30.842Z,1003.99
2019-03-18T08:18:34.160Z,1003.99
2019-03-18T08:19:31.383Z,1004.04
2019-03-18T08:20:31.862Z,1004.08
2019-03-18T08:21:29.350Z,1004.07
2019-03-18T08:22:29.334Z,1004.06
2019-03-18T08:23:29.370Z,1004.07
2019-03-18T08:24:29.312Z,1004.14
2019-03-18T08:25:30.027Z,1004.09
2019-03-18T08:26:29.454Z,1004.10
2019-03-18T08:27:29.968Z,1004.16
2019-03-18T08:28:29.454Z,1004.11
2019-03-18T08:29:29.839Z,1004.05
2019-03-18T08:30:29.261Z,1004.15
2019-03-18T08:31:29.317Z,1004.17
2019-03-18T08:32:29.314Z,1004.06
2019-03-18T08:33:29.329Z,1004.04
2019-03-18T08:34:29.283Z,1004.18
2019-03-18T08:35:29.842Z,1004.20
2019-03-18T08:36:30.058Z,1004.10
2019-03-18T08:37:29.188Z,1004.21
2019-03-18T08:38:29.208Z,1004.26
2019-03-18T08:39:29.982Z,1004.23
2019-03-18T08:40:29.226Z,1004.24
2019-03-18T08:41:29.227Z,1004.28
2019-03-18T08:42:29.120Z,1004.25
2019-03-18T08:43:29.088Z,1004.29
2019-03-18T08:44:29.102Z,1004.35
2019-03-18T08:45:29.159Z,1004.37
2019-03-18T08:46:29.921Z,1004.46
2019-03-18T08:47:29.071Z,1004.40
2019-03-18T08:48:29.140Z,1004.37
2019-03-18T08:49:29.016Z,1004.47
2019-03-18T08:50:29.212Z,1004.42
2019-03-18T08:51:29.141Z,1004.53
2019-03-18T08:52:29.844Z,1004.55
2019-03-18T08:53:28.972Z,1004.52
2019-03-18T08:54:28.946Z,1004.58
2019-03-18T08:55:29.049Z,1004.51
2019-03-18T08:56:29.792Z,1004.77
2019-03-18T08:57:28.923Z,1004.65
2019-03-18T08:58:29.075Z,1004.67
2019-03-18T08:59:28.957Z,1004.69
2019-03-18T09:00:28.886Z,1004.67
2019-03-18T09:01:29.134Z,1004.72
2019-03-18T09:02:28.925Z,1004.75
2019-03-18T09:03:28.975Z,1004.82
2019-03-18T09:04:28.969Z,1004.79
2019-03-18T09:05:28.878Z,1004.82
2019-03-18T09:06:30.327Z,1004.82
2019-03-18T09:07:28.896Z,1004.81
2019-03-18T09:08:29.256Z,1004.75
2019-03-18T09:09:28.996Z,1004.77
2019-03-18T09:10:28.898Z,1004.82
2019-03-18T09:11:28.815Z,1004.82
2019-03-18T09:12:28.866Z,1004.83
2019-03-18T09:13:28.823Z,1004.83
2019-03-18T09:14:28.839Z,1004.86
2019-03-18T09:15:28.736Z,1004.82
2019-03-18T09:16:29.455Z,1004.80
2019-03-18T09:17:29.429Z,1004.81
2019-03-18T09:18:28.969Z,1004.82
2019-03-18T09:19:28.913Z,1004.79
2019-03-18T09:20:28.856Z,1004.81
2019-03-18T09:21:28.932Z,1004.74
2019-03-18T09:22:29.860Z,1004.72
2019-03-18T09:23:28.796Z,1004.73
2019-03-18T09:24:29.638Z,1004.73
2019-03-18T09:25:28.893Z,1004.70
2019-03-18T09:26:28.619Z,1004.72
2019-03-18T09:27:28.699Z,1004.68
2019-03-18T09:28:28.664Z,1004.69
2019-03-18T09:29:28.980Z,1004.71
2019-03-18T09:30:29.871Z,1004.68
2019-03-18T09:31:28.795Z,1004.72
2019-03-18T09:32:28.637Z,1004.70
2019-03-18T09:33:28.772Z,1004.72
2019-03-18T09:34:30.353Z,1004.72
2019-03-18T09:35:29.441Z,1004.71
2019-03-18T09:36:28.638Z,1004.68
2019-03-18T09:37:28.543Z,1004.71
2019-03-18T09:38:28.480Z,1004.74
2019-03-18T09:39:28.487Z,1004.66
2019-03-18T09:40:29.437Z,1004.64
2019-03-18T09:41:29.354Z,1004.71
2019-03-18T09:42:29.355Z,1004.78
2019-03-18T09:43:28.507Z,1004.72
2019-03-18T09:44:28.702Z,1004.72
2019-03-18T09:45:34.813Z,1004.80
2019-03-18T09:46:29.044Z,1004.76
2019-03-18T09:47:32.785Z,1004.83
2019-03-18T09:48:35.706Z,1004.88
2019-03-18T09:49:29.354Z,1004.81
2019-03-18T09:50:28.413Z,1004.79
2019-03-18T09:51:28.406Z,1004.87
2019-03-18T09:52:28.677Z,1004.83
2019-03-18T09:53:28.347Z,1004.85
2019-03-18T09:54:28.320Z,1004.81
2019-03-18T09:55:28.325Z,1004.88
2019-03-18T09:56:28.429Z,1004.80
2019-03-18T09:57:39.478Z,1004.87
2019-03-18T09:58:30.447Z,1004.76
2019-03-18T09:59:33.285Z,1004.86
2019-03-18T10:00:28.231Z,1004.90
2019-03-18T10:01:28.219Z,1004.86
2019-03-18T10:02:28.238Z,1004.93
2019-03-18T10:03:29.051Z,1004.95
2019-03-18T10:04:28.218Z,1005.06
2019-03-18T10:05:39.091Z,1004.97
2019-03-18T10:06:28.189Z,1004.96
2019-03-18T10:07:28.176Z,1005.07
2019-03-18T10:08:28.162Z,1005.05
2019-03-18T10:09:28.204Z,1005.15
2019-03-18T10:10:28.188Z,1005.19
2019-03-18T10:11:28.122Z,1005.14
2019-03-18T10:12:28.225Z,1005.08
2019-03-18T10:13:28.155Z,1005.16
2019-03-18T10:14:28.131Z,1005.21
2019-03-18T10:15:28.866Z,1005.16
2019-03-18T10:16:28.210Z,1005.16
2019-03-18T10:17:28.291Z,1005.22
2019-03-18T10:18:28.056Z,1005.29
2019-03-18T10:19:33.567Z,1005.24
2019-03-18T10:20:29.163Z,1005.23
2019-03-18T10:21:28.867Z,1005.33
2019-03-18T10:22:29.374Z,1005.38
2019-03-18T10:23:38.473Z,1005.38
2019-03-18T10:24:29.033Z,1005.45
2019-03-18T10:25:27.969Z,1005.39
2019-03-18T10:26:27.994Z,1005.43
2019-03-18T10:27:28.090Z,1005.55
2019-03-18T10:28:27.951Z,1005.47
2019-03-18T10:29:27.936Z,1005.48
2019-03-18T10:30:27.929Z,1005.40
2019-03-18T10:31:28.955Z,1005.45
2019-03-18T10:32:27.901Z,1005.42
2019-03-18T10:33:27.986Z,1005.42
2019-03-18T10:34:27.942Z,1005.50
2019-03-18T10:35:27.889Z,1005.48
2019-03-18T10:36:28.878Z,1005.46
2019-03-18T10:37:27.890Z,1005.31
2019-03-18T10:38:28.866Z,1005.32
2019-03-18T10:39:27.830Z,1005.26
2019-03-18T10:40:27.875Z,1005.24
2019-03-18T10:41:27.799Z,1005.33
2019-03-18T10:42:27.789Z,1005.33
2019-03-18T10:43:27.779Z,1005.25
2019-03-18T10:44:27.780Z,1005.30
2019-03-18T10:45:27.777Z,1005.23
2019-03-18T10:46:27.777Z,1005.33
2019-03-18T10:47:27.747Z,1005.34
2019-03-18T10:48:27.755Z,1005.31
2019-03-18T10:49:27.739Z,1005.37
2019-03-18T10:50:27.734Z,1005.34
2019-03-18T10:51:27.740Z,1005.41
2019-03-18T10:52:28.015Z,1005.50
2019-03-18T10:53:27.683Z,1005.47
2019-03-18T10:54:31.148Z,1005.49
2019-03-18T10:55:27.663Z,1005.45
2019-03-18T10:56:27.696Z,1005.43
2019-03-18T10:57:27.649Z,1005.61
2019-03-18T10:58:27.621Z,1005.59
2019-03-18T10:59:27.616Z,1005.53
2019-03-18T11:00:27.603Z,1005.54
2019-03-18T11:01:27.599Z,1005.56
2019-03-18T11:02:27.630Z,1005.56
2019-03-18T11:03:27.614Z,1005.67
2019-03-18T11:04:27.555Z,1005.53
2019-03-18T11:05:27.539Z,1005.63
2019-03-18T11:06:27.522Z,1005.72
2019-03-18T11:07:27.575Z,1005.56
2019-03-18T11:08:27.556Z,1005.74
2019-03-18T11:09:27.508Z,1005.78
2019-03-18T11:10:27.499Z,1005.77
2019-03-18T11:11:28.442Z,1005.77
2019-03-18T11:12:27.469Z,1005.78
2019-03-18T11:13:27.484Z,1005.76
2019-03-18T11:14:27.476Z,1005.86
2019-03-18T11:15:27.493Z,1005.80
2019-03-18T11:16:27.429Z,1005.82
2019-03-18T11:17:27.440Z,1005.84
2019-03-18T11:18:27.452Z,1005.83
2019-03-18T11:19:27.489Z,1005.75
2019-03-18T11:20:27.413Z,1005.78
2019-03-18T11:21:27.397Z,1005.80
2019-03-18T11:22:27.350Z,1005.76
2019-03-18T11:23:27.350Z,1005.73
2019-03-18T11:24:27.353Z,1005.80
2019-03-18T11:25:27.331Z,1005.72
2019-03-18T11:26:27.333Z,1005.75
2019-03-18T11:27:27.338Z,1005.67
2019-03-18T11:28:27.323Z,1005.74
2019-03-18T11:29:27.309Z,1005.68
2019-03-18T11:30:27.417Z,1005.65
2019-03-18T11:31:27.309Z,1005.72
2019-03-18T11:32:27.286Z,1005.67
2019-03-18T11:33:28.506Z,1005.64
2019-03-18T11:34:27.283Z,1005.74
2019-03-18T11:35:27.377Z,1005.57
2019-03-18T11:36:27.245Z,1005.75
2019-03-18T11:37:27.208Z,1005.59
2019-03-18T11:38:27.309Z,1005.58
2019-03-18T11:39:27.287Z,1005.63
2019-03-18T11:40:27.301Z,1005.69
2019-03-18T11:41:27.199Z,1005.69
2019-03-18T11:42:27.919Z,1005.65
2019-03-18T11:43:27.138Z,1005.61
2019-03-18T11:44:27.141Z,1005.71
2019-03-18T11:45:27.154Z,1005.71
2019-03-18T11:46:27.131Z,1005.66
2019-03-18T11:47:27.091Z,1005.69
2019-03-18T11:48:27.962Z,1005.66
2019-03-18T11:49:39.010Z,1005.71
2019-03-18T11:50:28.105Z,1005.75
2019-03-18T11:51:27.079Z,1005.64
2019-03-18T11:52:27.063Z,1005.72
2019-03-18T11:53:27.435Z,1005.71
2019-03-18T11:54:27.146Z,1005.73
2019-03-18T11:55:27.047Z,1005.64
2019-03-18T11:56:27.004Z,1005.65
2019-03-18T11:57:27.020Z,1005.71
2019-03-18T11:58:26.992Z,1005.58
2019-03-18T11:59:26.966Z,1005.61
2019-03-18T12:00:27.039Z,1005.59
2019-03-18T12:01:26.954Z,1005.52
2019-03-18T12:02:28.006Z,1005.49
2019-03-18T12:03:26.939Z,1005.46
2019-03-18T12:04:26.906Z,1005.51
2019-03-18T12:05:26.923Z,1005.49